createdAt,value
2024-01-15T00:01:53.762Z,-3.60
2024-01-15T00:04:22.744Z,-3.59
2024-01-15T00:06:51.412Z,-3.58
2024-01-15T00:09:19.084Z,-3.68
2024-01-15T00:11:47.351Z,-3.70
2024-01-15T00:14:15.818Z,-3.52
2024-01-15T00:16:43.461Z,-3.50
2024-01-15T00:19:11.154Z,-3.44
2024-01-15T00:21:40.116Z,-3.40
2024-01-15T00:24:07.801Z,-3.75
2024-01-15T00:26:35.341Z,-3.60
2024-01-15T00:29:04.133Z,-3.78
2024-01-15T00:31:32.116Z,-3.94
2024-01-15T00:34:00.109Z,-4.08
2024-01-15T00:36:27.951Z,-4.17
2024-01-15T00:38:56.819Z,-4.24
2024-01-15T00:41:24.388Z,-4.25
2024-01-15T00:43:51.991Z,-4.29
2024-01-15T00:46:19.666Z,-4.31
2024-01-15T00:48:48.201Z,-4.23
2024-01-15T00:51:15.951Z,-4.24
2024-01-15T00:53:43.542Z,-4.24
2024-01-15T00:56:12.553Z,-4.12
2024-01-15T00:58:40.059Z,-4.22
2024-01-15T01:01:07.694Z,-4.21
2024-01-15T01:03:35.393Z,-4.23
2024-01-15T01:06:02.966Z,-4.25
2024-01-15T01:08:30.497Z,-4.26
2024-01-15T01:10:58.056Z,-4.19
2024-01-15T01:13:26.923Z,-4.17
2024-01-15T01:15:54.525Z,-4.20
2024-01-15T01:18:22.239Z,-4.14
2024-01-15T01:20:49.868Z,-4.17
2024-01-15T01:23:17.419Z,-4.19
2024-01-15T01:25:45.012Z,-4.17
2024-01-15T01:28:12.581Z,-4.08
2024-01-15T01:30:41.691Z,-4.04
2024-01-15T01:33:09.534Z,-4.02
2024-01-15T01:35:37.211Z,-4.05
2024-01-15T01:38:05.005Z,-4.03
2024-01-15T01:40:32.571Z,-4.07
2024-01-15T01:43:00.133Z,-4.07
2024-01-15T01:45:27.728Z,-4.06
2024-01-15T01:47:56.796Z,-3.85
2024-01-15T01:50:24.878Z,-3.74
2024-01-15T01:52:52.605Z,-3.79
2024-01-15T01:55:21.203Z,-3.84
2024-01-15T01:57:49.224Z,-3.85
2024-01-15T02:00:17.719Z,-3.85
2024-01-15T02:02:45.411Z,-3.79
2024-01-15T02:05:16.117Z,-3.84
2024-01-15T02:07:43.699Z,-3.69
2024-01-15T02:10:11.641Z,-3.66
2024-01-15T02:12:39.298Z,-3.43
2024-01-15T02:15:07.698Z,-3.39
2024-01-15T02:17:35.341Z,-3.62
2024-01-15T02:20:03.344Z,-3.64
2024-01-15T02:22:32.303Z,-3.56
2024-01-15T02:25:01.231Z,-3.44
2024-01-15T02:27:28.859Z,-3.43
2024-01-15T02:29:57.615Z,-3.46
2024-01-15T02:32:25.173Z,-3.37
2024-01-15T02:34:52.884Z,-3.48
2024-01-15T02:37:21.878Z,-3.27
2024-01-15T02:39:49.535Z,-3.37
2024-01-15T02:42:18.505Z,-3.46
2024-01-15T02:44:46.087Z,-3.22
2024-01-15T02:47:13.642Z,-3.22
2024-01-15T02:49:41.255Z,-3.17
2024-01-15T02:52:08.854Z,-3.07
2024-01-15T02:54:36.631Z,-3.25
2024-01-15T02:57:04.364Z,-3.17
2024-01-15T02:59:33.265Z,-3.12
2024-01-15T03:02:00.797Z,-3.05
2024-01-15T03:04:28.578Z,-3.19
2024-01-15T03:06:56.317Z,-3.15
2024-01-15T03:09:23.877Z,-3.10
2024-01-15T03:11:51.407Z,-2.99
2024-01-15T03:14:18.949Z,-2.99
2024-01-15T03:16:47.814Z,-2.95
2024-01-15T03:19:15.558Z,-3.13
2024-01-15T03:21:43.153Z,-3.01
2024-01-15T03:24:10.790Z,-2.83
2024-01-15T03:26:38.334Z,-2.90
2024-01-15T03:29:05.881Z,-2.71
2024-01-15T03:31:33.462Z,-2.60
2024-01-15T03:34:02.663Z,-2.73
2024-01-15T03:36:30.237Z,-2.61
2024-01-15T03:38:57.778Z,-2.56
2024-01-15T03:41:25.321Z,-2.54
2024-01-15T03:43:52.847Z,-2.54
2024-01-15T03:46:20.423Z,-2.57
2024-01-15T03:48:48.023Z,-2.57
2024-01-15T03:51:17.666Z,-2.27
2024-01-15T03:53:45.209Z,-1.99
2024-01-15T03:56:12.817Z,-2.32
2024-01-15T03:58:40.458Z,-1.90
2024-01-15T04:01:10.025Z,-1.69
2024-01-15T04:03:38.064Z,-1.65
2024-01-15T04:06:06.585Z,-1.93
2024-01-15T04:08:35.511Z,-1.92
2024-01-15T04:11:03.528Z,-1.97
2024-01-15T04:13:31.050Z,-1.97
2024-01-15T04:15:58.697Z,-1.89
2024-01-15T04:18:26.315Z,-1.75
2024-01-15T04:20:53.929Z,-2.18
2024-01-15T04:23:21.439Z,-1.82
2024-01-15T04:25:50.302Z,-1.73
2024-01-15T04:28:17.907Z,-1.78
2024-01-15T04:30:45.505Z,-1.95
2024-01-15T04:33:13.282Z,-1.83
2024-01-15T04:35:40.867Z,-1.67
2024-01-15T04:38:08.434Z,-1.64
2024-01-15T04:40:36.009Z,-1.55
2024-01-15T04:43:05.213Z,-1.40
2024-01-15T04:45:32.743Z,-1.52
2024-01-15T04:48:00.351Z,-1.47
2024-01-15T04:50:27.886Z,-1.43
2024-01-15T04:52:55.437Z,-1.01
2024-01-15T04:55:22.943Z,-1.15
2024-01-15T04:57:50.598Z,-1.04
2024-01-15T05:00:20.612Z,-0.86
2024-01-15T05:02:48.168Z,-0.95
2024-01-15T05:05:15.759Z,-1.29
2024-01-15T05:07:43.315Z,-1.53
2024-01-15T05:10:11.274Z,-1.71
2024-01-15T05:12:39.081Z,-1.62
2024-01-15T05:15:07.278Z,-1.43
2024-01-15T05:17:36.306Z,-1.21
2024-01-15T05:20:04.433Z,-1.33
2024-01-15T05:22:32.199Z,-1.14
2024-01-15T05:24:59.777Z,-1.23
2024-01-15T05:27:27.746Z,-1.12
2024-01-15T05:29:55.291Z,-1.27
2024-01-15T05:32:22.833Z,-1.16
2024-01-15T05:34:51.820Z,-1.17
2024-01-15T05:37:19.421Z,-1.09
2024-01-15T05:39:46.974Z,-1.26
2024-01-15T05:42:14.693Z,-1.17
2024-01-15T05:44:41.264Z,-0.98
2024-01-15T05:47:10.032Z,-1.29
2024-01-15T05:49:37.699Z,-1.00
2024-01-15T05:52:06.958Z,-1.00
2024-01-15T05:54:34.523Z,-0.87
2024-01-15T05:57:02.085Z,-0.99
2024-01-15T05:59:32.858Z,-0.92
2024-01-15T06:02:00.435Z,-1.08
2024-01-15T06:04:28.203Z,-0.59
2024-01-15T06:06:55.926Z,-0.39
2024-01-15T06:09:25.146Z,-0.82
2024-01-15T06:11:52.756Z,-0.81
2024-01-15T06:14:20.301Z,-0.78
2024-01-15T06:16:47.945Z,-0.39
2024-01-15T06:19:15.520Z,0.06
2024-01-15T06:21:43.141Z,0.02
2024-01-15T06:24:11.314Z,0.08
2024-01-15T06:26:40.285Z,0.06
2024-01-15T06:29:07.845Z,-0.08
2024-01-15T06:31:35.795Z,-0.28
2024-01-15T06:34:03.460Z,-0.09
2024-01-15T06:36:31.116Z,0.00
2024-01-15T06:38:58.710Z,0.10
2024-01-15T06:41:26.700Z,0.02
2024-01-15T06:43:56.711Z,0.18
2024-01-15T06:46:24.970Z,0.18
2024-01-15T06:48:52.735Z,-0.28
2024-01-15T06:51:20.371Z,-0.21
2024-01-15T06:53:48.268Z,0.04
2024-01-15T06:56:15.797Z,-0.53
2024-01-15T06:58:43.325Z,-0.01
2024-01-15T07:01:12.237Z,0.05
2024-01-15T07:03:39.972Z,0.27
2024-01-15T07:06:07.713Z,0.05
2024-01-15T07:08:35.345Z,-0.22
2024-01-15T07:11:05.826Z,-0.13
2024-01-15T07:13:33.389Z,-0.15
2024-01-15T07:16:01.157Z,-0.21
2024-01-15T07:18:30.166Z,-0.21
2024-01-15T07:20:57.813Z,-0.22
2024-01-15T07:23:27.158Z,-0.04
2024-01-15T07:25:56.083Z,-0.04
2024-01-15T07:28:23.613Z,0.21
2024-01-15T07:30:51.164Z,0.02
2024-01-15T07:33:18.828Z,0.03
2024-01-15T07:35:47.855Z,-0.44
2024-01-15T07:38:15.441Z,-0.07
2024-01-15T07:40:43.004Z,-0.33
2024-01-15T07:43:10.536Z,-0.48
2024-01-15T07:45:38.098Z,-0.34
2024-01-15T07:48:06.556Z,-0.33
2024-01-15T07:50:34.117Z,-0.13
2024-01-15T07:53:02.998Z,-0.14
2024-01-15T07:55:30.520Z,-0.38
2024-01-15T07:58:11.011Z,-0.27
2024-01-15T08:00:43.046Z,-0.20
2024-01-15T08:03:10.773Z,0.07
2024-01-15T08:05:38.641Z,0.49
2024-01-15T08:08:07.929Z,0.38
2024-01-15T08:10:35.462Z,0.11
2024-01-15T08:13:03.135Z,-0.08
2024-01-15T08:15:31.846Z,-0.27
2024-01-15T08:18:00.512Z,-0.20
2024-01-15T08:20:28.173Z,-0.24
2024-01-15T08:22:55.715Z,0.15
2024-01-15T08:25:24.568Z,0.18
2024-01-15T08:27:52.109Z,0.28
2024-01-15T08:30:21.552Z,0.05
2024-01-15T08:32:49.190Z,0.49
2024-01-15T08:35:16.999Z,0.24
2024-01-15T08:37:44.674Z,-0.02
2024-01-15T08:40:13.140Z,0.21
2024-01-15T08:42:41.990Z,0.12
2024-01-15T08:45:10.578Z,0.23
2024-01-15T08:47:38.130Z,0.48
2024-01-15T08:50:06.804Z,0.68
2024-01-15T08:52:34.322Z,0.57
2024-01-15T08:55:02.066Z,0.66
2024-01-15T08:57:29.629Z,0.51
2024-01-15T08:59:59.621Z,0.63
2024-01-15T09:02:27.126Z,0.73
2024-01-15T09:04:54.743Z,0.56
2024-01-15T09:07:22.308Z,0.04
2024-01-15T09:09:49.888Z,-0.15
2024-01-15T09:12:19.483Z,-0.34
2024-01-15T09:14:47.050Z,-0.12
2024-01-15T09:17:15.944Z,0.06
2024-01-15T09:19:44.103Z,-0.04
2024-01-15T09:22:11.788Z,-0.02
2024-01-15T09:24:39.321Z,0.66
2024-01-15T09:27:06.857Z,0.44
2024-01-15T09:29:34.387Z,0.07
2024-01-15T09:32:04.193Z,-0.09
2024-01-15T09:34:33.256Z,0.15
2024-01-15T09:37:01.732Z,0.14
2024-01-15T09:39:29.319Z,0.33
2024-01-15T09:41:57.127Z,0.04
2024-01-15T09:44:25.093Z,0.21
2024-01-15T09:46:53.868Z,0.41
2024-01-15T09:49:21.977Z,0.50
2024-01-15T09:51:59.305Z,-0.01
2024-01-15T09:54:34.297Z,0.01
2024-01-15T09:57:02.852Z,0.37
2024-01-15T09:59:30.469Z,0.03
2024-01-15T10:02:00.784Z,0.00
2024-01-15T10:04:28.892Z,0.02
2024-01-15T10:06:59.929Z,0.19
2024-01-15T10:09:27.623Z,0.68
2024-01-15T10:11:56.002Z,0.82
2024-01-15T10:14:23.571Z,1.18
2024-01-15T10:16:51.148Z,1.26
2024-01-15T10:19:18.859Z,1.19
2024-01-15T10:21:47.965Z,1.03
2024-01-15T10:24:16.830Z,1.53
2024-01-15T10:26:45.298Z,1.33
2024-01-15T10:29:12.892Z,0.96
2024-01-15T10:31:40.707Z,0.99
2024-01-15T10:34:16.487Z,0.72
2024-01-15T10:36:53.637Z,0.44
2024-01-15T10:39:22.699Z,0.38
2024-01-15T10:41:50.450Z,0.39
2024-01-15T10:44:18.044Z,0.47
2024-01-15T10:46:46.213Z,0.49
2024-01-15T10:49:14.120Z,0.18
2024-01-15T10:51:44.124Z,0.45
2024-01-15T10:54:13.088Z,0.80
2024-01-15T10:56:43.390Z,0.74
2024-01-15T10:59:12.913Z,0.42
2024-01-15T11:01:40.755Z,0.16
2024-01-15T11:04:08.491Z,0.53
2024-01-15T11:06:44.912Z,0.93
2024-01-15T11:09:13.552Z,0.77
2024-01-15T11:11:46.218Z,0.74
2024-01-15T11:14:33.778Z,0.71
2024-01-15T11:17:01.373Z,0.55
2024-01-15T11:19:38.059Z,0.38
2024-01-15T11:22:07.255Z,0.37
2024-01-15T11:24:39.475Z,0.40
2024-01-15T11:27:10.076Z,0.44
2024-01-15T11:29:38.863Z,0.49
2024-01-15T11:32:10.524Z,0.59
2024-01-15T11:34:52.625Z,-0.01
2024-01-15T11:37:20.751Z,0.50
2024-01-15T11:39:48.894Z,0.59
2024-01-15T11:42:19.841Z,0.16
2024-01-15T11:44:47.817Z,0.27
2024-01-15T11:47:16.685Z,0.11
2024-01-15T11:50:06.304Z,-0.04
2024-01-15T11:52:35.767Z,0.02
2024-01-15T11:55:12.268Z,0.33
2024-01-15T11:57:47.434Z,-0.05
2024-01-15T12:00:16.125Z,0.26
2024-01-15T12:02:44.145Z,0.34
2024-01-15T12:05:13.750Z,0.41
2024-01-15T12:07:41.824Z,0.52
2024-01-15T12:10:14.885Z,0.52
2024-01-15T12:12:56.718Z,0.23
2024-01-15T12:15:24.985Z,0.22
2024-01-15T12:17:52.737Z,0.27
2024-01-15T12:20:21.418Z,0.16
2024-01-15T12:22:57.151Z,0.24
2024-01-15T12:25:31.032Z,0.35
2024-01-15T12:28:00.575Z,0.31
2024-01-15T12:30:28.419Z,0.55
2024-01-15T12:32:56.777Z,0.72
2024-01-15T12:35:27.221Z,1.22
2024-01-15T12:37:56.488Z,0.98
2024-01-15T12:40:26.432Z,1.14
2024-01-15T12:42:54.148Z,1.34
2024-01-15T12:45:23.245Z,0.51
2024-01-15T12:47:52.233Z,0.75
2024-01-15T12:50:20.990Z,0.92
2024-01-15T12:52:49.338Z,0.35
2024-01-15T12:55:17.705Z,0.74
2024-01-15T12:57:46.386Z,1.08
2024-01-15T13:00:15.913Z,0.90
2024-01-15T13:02:45.370Z,0.38
2024-01-15T13:05:14.870Z,0.73
2024-01-15T13:07:44.016Z,0.21
2024-01-15T13:10:12.588Z,0.31
2024-01-15T13:12:42.773Z,0.60
2024-01-15T13:15:14.512Z,0.48
2024-01-15T13:17:45.113Z,0.87
2024-01-15T13:20:14.390Z,0.59
2024-01-15T13:22:44.838Z,0.17
2024-01-15T13:25:12.568Z,0.66
2024-01-15T13:27:40.573Z,0.19
2024-01-15T13:30:10.671Z,0.55
2024-01-15T13:32:38.349Z,0.44
2024-01-15T13:35:10.703Z,0.60
2024-01-15T13:37:39.060Z,0.32
2024-01-15T13:40:08.803Z,0.31
2024-01-15T13:42:38.694Z,0.17
2024-01-15T13:45:08.528Z,0.30
2024-01-15T13:47:36.121Z,0.27
2024-01-15T13:50:03.712Z,0.33
2024-01-15T13:52:32.717Z,0.43
2024-01-15T13:55:00.382Z,0.49
2024-01-15T13:57:28.095Z,0.33
2024-01-15T13:59:56.057Z,0.49
2024-01-15T14:02:25.074Z,0.46
2024-01-15T14:04:53.392Z,0.42
2024-01-15T14:07:20.986Z,0.41
2024-01-15T14:09:49.956Z,0.47
2024-01-15T14:12:17.642Z,0.14
2024-01-15T14:14:45.162Z,0.32
2024-01-15T14:17:12.911Z,0.55
2024-01-15T14:19:40.625Z,1.04
2024-01-15T14:22:08.330Z,1.42
2024-01-15T14:24:35.937Z,1.10
2024-01-15T14:27:06.334Z,1.25
2024-01-15T14:29:33.853Z,1.07
2024-01-15T14:32:02.765Z,0.89
2024-01-15T14:34:30.493Z,0.87
2024-01-15T14:36:58.224Z,0.82
2024-01-15T14:39:26.662Z,0.98
2024-01-15T14:41:54.442Z,0.84
2024-01-15T14:44:23.777Z,0.99
2024-01-15T14:46:51.385Z,0.92
2024-01-15T14:49:19.226Z,0.81
2024-01-15T14:51:47.126Z,1.06
2024-01-15T14:54:14.783Z,0.59
2024-01-15T14:56:43.738Z,0.33
2024-01-15T14:59:11.274Z,0.09
2024-01-15T15:01:41.230Z,0.09
2024-01-15T15:04:09.370Z,0.16
2024-01-15T15:06:37.720Z,-0.04
2024-01-15T15:09:09.943Z,0.14
2024-01-15T15:11:37.783Z,0.24
2024-01-15T15:14:05.898Z,0.34
2024-01-15T15:16:33.427Z,0.40
2024-01-15T15:19:02.556Z,0.25
2024-01-15T15:21:30.721Z,0.11
2024-01-15T15:23:58.297Z,0.21
2024-01-15T15:26:26.065Z,0.25
2024-01-15T15:28:53.667Z,0.08
2024-01-15T15:31:21.221Z,0.49
2024-01-15T15:33:48.853Z,0.35
2024-01-15T15:36:18.744Z,0.55
2024-01-15T15:38:46.283Z,0.18
2024-01-15T15:41:13.828Z,0.14
2024-01-15T15:43:41.370Z,0.07
2024-01-15T15:46:09.151Z,0.16
2024-01-15T15:48:37.107Z,0.00
2024-01-15T15:51:04.963Z,-0.35
2024-01-15T15:53:33.795Z,-0.30
2024-01-15T15:56:01.391Z,-0.26
2024-01-15T15:58:28.905Z,-0.16
2024-01-15T16:00:56.613Z,-0.04
2024-01-15T16:03:24.252Z,0.28
2024-01-15T16:05:53.536Z,-0.29
2024-01-15T16:08:21.825Z,-0.49
2024-01-15T16:10:52.502Z,-0.52
2024-01-15T16:13:20.616Z,-0.50
2024-01-15T16:15:48.518Z,-0.71
2024-01-15T16:23:19.987Z,-0.59
2024-01-15T16:23:34.609Z,-0.61
2024-01-15T16:24:11.596Z,-0.57
2024-01-15T16:26:41.174Z,-0.66
2024-01-15T16:29:09.249Z,-0.72
2024-01-15T16:31:38.019Z,-0.69
2024-01-15T16:34:07.074Z,-0.81
2024-01-15T16:36:35.781Z,-0.87
2024-01-15T16:39:04.079Z,-0.82
2024-01-15T16:41:31.760Z,-0.83
2024-01-15T16:44:00.673Z,-0.92
2024-01-15T16:46:28.614Z,-0.91
2024-01-15T16:48:57.261Z,-0.80
2024-01-15T16:51:24.854Z,-0.86
2024-01-15T16:53:52.786Z,-0.86
2024-01-15T16:56:21.236Z,-0.84
2024-01-15T16:58:48.782Z,-0.96
2024-01-15T17:01:17.672Z,-0.90
2024-01-15T17:03:45.298Z,-1.02
2024-01-15T17:06:12.817Z,-1.04
2024-01-15T17:08:40.532Z,-1.05
2024-01-15T17:11:08.717Z,-0.89
2024-01-15T17:13:36.284Z,-0.98
2024-01-15T17:16:04.817Z,-0.87
2024-01-15T17:18:33.760Z,-0.83
2024-01-15T17:21:01.349Z,-0.95
2024-01-15T17:23:29.011Z,-0.84
2024-01-15T17:25:56.566Z,-0.85
2024-01-15T17:28:25.438Z,-0.93
2024-01-15T17:30:53.325Z,-0.89
2024-01-15T17:33:21.432Z,-0.87
2024-01-15T17:35:54.317Z,-0.86
2024-01-15T17:38:22.226Z,-0.86
2024-01-15T17:40:49.907Z,-0.82
2024-01-15T17:43:18.188Z,-0.82
2024-01-15T17:45:45.732Z,-0.88
2024-01-15T17:48:13.588Z,-0.91
2024-01-15T17:50:41.348Z,-0.81
2024-01-15T17:53:11.866Z,-0.77
2024-01-15T17:55:39.599Z,-0.70
2024-01-15T17:58:07.769Z,-0.66
2024-01-15T18:00:35.496Z,-0.69
2024-01-15T18:03:03.452Z,-0.57
2024-01-15T18:05:31.139Z,-0.80
2024-01-15T18:07:58.788Z,-0.80
2024-01-15T18:10:27.904Z,-0.89
2024-01-15T18:12:55.443Z,-0.84
2024-01-15T18:15:23.005Z,-0.74
2024-01-15T18:17:50.641Z,-0.74
2024-01-15T18:20:18.702Z,-0.81
2024-01-15T18:22:50.810Z,-0.82
2024-01-15T18:25:19.738Z,-0.99
2024-01-15T18:27:48.708Z,-0.98
2024-01-15T18:30:16.934Z,-0.93
2024-01-15T18:32:44.540Z,-0.95
2024-01-15T18:35:12.300Z,-0.96
2024-01-15T18:37:39.928Z,-0.92
2024-01-15T18:40:10.451Z,-0.81
2024-01-15T18:42:37.994Z,-0.85
2024-01-15T18:45:08.009Z,-0.82
2024-01-15T18:47:35.630Z,-0.77
2024-01-15T18:50:03.586Z,-0.84
2024-01-15T18:52:32.239Z,-1.00
2024-01-15T18:55:00.046Z,-0.74
2024-01-15T18:57:27.590Z,-1.01
2024-01-15T18:59:55.158Z,-0.98
2024-01-15T19:02:24.101Z,-0.79
2024-01-15T19:04:52.154Z,-0.82
2024-01-15T19:07:19.723Z,-0.77
2024-01-15T19:09:47.285Z,-0.89
2024-01-15T19:12:14.838Z,-0.90
2024-01-15T19:14:42.420Z,-0.89
2024-01-15T19:17:09.989Z,-0.97
2024-01-15T19:19:39.605Z,-0.62
2024-01-15T19:22:07.291Z,-0.80
2024-01-15T19:24:34.855Z,-0.92
2024-01-15T19:27:02.411Z,-0.76
2024-01-15T19:29:30.127Z,-0.81
2024-01-15T19:31:59.737Z,-0.84
2024-01-15T19:34:27.685Z,-0.73
2024-01-15T19:36:56.716Z,-0.82
2024-01-15T19:39:25.520Z,-0.66
2024-01-15T19:41:53.612Z,-0.85
2024-01-15T19:44:21.233Z,-0.80
2024-01-15T19:46:48.786Z,-1.00
2024-01-15T19:49:16.802Z,-0.96
2024-01-15T19:51:44.703Z,-0.92
2024-01-15T19:54:13.657Z,-0.67
2024-01-15T19:56:41.334Z,-0.75
2024-01-15T19:59:09.062Z,-0.72
2024-01-15T20:01:36.653Z,-0.69
2024-01-15T20:04:04.830Z,-0.82
2024-01-15T20:06:32.601Z,-0.60
2024-01-15T20:09:00.225Z,-0.76
2024-01-15T20:11:29.157Z,-0.78
2024-01-15T20:13:56.732Z,-0.75
2024-01-15T20:16:25.301Z,-0.57
2024-01-15T20:18:53.177Z,-0.56
2024-01-15T20:21:20.868Z,-0.55
2024-01-15T20:23:55.216Z,-0.67
2024-01-15T20:26:26.659Z,-0.75
2024-01-15T20:28:56.508Z,-0.44
2024-01-15T20:31:24.308Z,-0.65
2024-01-15T20:33:52.135Z,-0.89
2024-01-15T20:36:19.792Z,-0.68
2024-01-15T20:38:47.494Z,-1.00
2024-01-15T20:41:17.107Z,-1.01
2024-01-15T20:43:44.924Z,-0.95
2024-01-15T20:46:13.822Z,-1.13
2024-01-15T20:48:41.580Z,-1.13
2024-01-15T20:51:11.158Z,-1.08
2024-01-15T20:53:38.739Z,-0.97
2024-01-15T20:56:06.756Z,-1.01
2024-01-15T20:58:34.304Z,-0.86
2024-01-15T21:01:03.223Z,-0.86
2024-01-15T21:03:32.320Z,-0.97
2024-01-15T21:06:00.558Z,-1.04
2024-01-15T21:08:30.070Z,-1.19
2024-01-15T21:10:57.623Z,-1.17
2024-01-15T21:13:25.262Z,-1.03
2024-01-15T21:15:53.174Z,-1.01
2024-01-15T21:18:21.209Z,-0.95
2024-01-15T21:20:50.271Z,-1.07
2024-01-15T21:23:17.893Z,-1.02
2024-01-15T21:25:45.436Z,-1.10
2024-01-15T21:28:12.960Z,-1.14
2024-01-15T21:30:40.550Z,-1.15
2024-01-15T21:33:09.091Z,-1.12
2024-01-15T21:35:36.803Z,-0.99
2024-01-15T21:38:05.813Z,-0.97
2024-01-15T21:40:35.176Z,-0.98
2024-01-15T21:43:02.695Z,-1.01
2024-01-15T21:45:30.371Z,-1.00
2024-01-15T21:47:58.130Z,-0.88
2024-01-15T21:50:25.773Z,-1.05
2024-01-15T21:52:53.308Z,-1.05
2024-01-15T21:55:22.244Z,-1.15
2024-01-15T21:57:49.775Z,-1.07
2024-01-15T22:00:19.487Z,-1.00
2024-01-15T22:02:47.949Z,-1.12
2024-01-15T22:05:16.757Z,-0.98
2024-01-15T22:07:45.383Z,-1.06
2024-01-15T22:10:13.276Z,-1.15
2024-01-15T22:12:42.210Z,-0.97
2024-01-15T22:15:10.577Z,-1.05
2024-01-15T22:17:38.226Z,-1.16
2024-01-15T22:20:07.814Z,-1.05
2024-01-15T22:22:35.845Z,-1.15
2024-01-15T22:25:03.928Z,-1.15
2024-01-15T22:27:31.509Z,-1.02
2024-01-15T22:30:00.430Z,-1.11
2024-01-15T22:32:30.918Z,-1.08
2024-01-15T22:34:59.601Z,-1.06
2024-01-15T22:37:27.137Z,-0.92
2024-01-15T22:39:54.682Z,-1.00
2024-01-15T22:42:22.214Z,-0.93
2024-01-15T22:44:49.941Z,-0.96
2024-01-15T22:47:18.991Z,-1.00
2024-01-15T22:49:46.511Z,-1.00
2024-01-15T22:52:14.557Z,-0.91
2024-01-15T22:54:42.096Z,-0.92
2024-01-15T22:57:09.660Z,-1.07
2024-01-15T22:59:37.288Z,-1.03
2024-01-15T23:02:05.248Z,-1.19
2024-01-15T23:04:34.212Z,-1.21
2024-01-15T23:07:01.723Z,-1.16
2024-01-15T23:09:29.418Z,-1.16
2024-01-15T23:11:56.932Z,-1.05
2024-01-15T23:14:24.865Z,-1.18
2024-01-15T23:16:53.202Z,-1.25
2024-01-15T23:19:20.756Z,-1.33
2024-01-15T23:21:49.658Z,-1.40
2024-01-15T23:24:17.174Z,-1.43
2024-01-15T23:26:44.739Z,-1.47
2024-01-15T23:29:12.516Z,-1.47
2024-01-15T23:31:41.746Z,-1.57
2024-01-15T23:34:09.715Z,-1.57
2024-01-15T23:36:37.717Z,-1.55
2024-01-15T23:39:08.914Z,-1.52
2024-01-15T23:41:37.218Z,-1.46
2024-01-15T23:44:05.240Z,-1.50
2024-01-15T23:46:32.821Z,-1.43
2024-01-15T23:49:00.357Z,-1.24
2024-01-15T23:51:28.201Z,-1.33
2024-01-15T23:53:55.765Z,-1.19
2024-01-15T23:56:24.720Z,-1.38
2024-01-15T23:58:52.329Z,-1.40
